sensor_id;sensor_type;location;lat;lon;timestamp;pressure;altitude;pressure_sealevel;temperature;humidity
28267;BME280;15525;45.568;5.448;2022-11-14T00:00:58;98148.28;;;15.12;60.42
28267;BME280;15525;45.568;5.448;2022-11-14T00:03:24;98133.44;;;15.28;59.53
28267;BME280;15525;45.568;5.448;2022-11-14T00:05:49;98142.81;;;15.17;60.08
28267;BME280;15525;45.568;5.448;2022-11-14T00:08:20;98140.88;;;15.36;59.35
28267;BME280;15525;45.568;5.448;2022-11-14T00:10:47;98142.69;;;15.41;59.16
28267;BME280;15525;45.568;5.448;2022-11-14T00:13:13;98143.44;;;15.28;59.83
28267;BME280;15525;45.568;5.448;2022-11-14T00:15:39;98133.97;;;15.30;59.80
28267;BME280;15525;45.568;5.448;2022-11-14T00:18:04;98130.66;;;15.33;59.23
28267;BME280;15525;45.568;5.448;2022-11-14T00:20:31;98134.91;;;15.21;60.08
28267;BME280;15525;45.568;5.448;2022-11-14T00:22:56;98129.50;;;15.39;59.05
28267;BME280;15525;45.568;5.448;2022-11-14T00:25:22;98109.91;;;15.34;59.29
28267;BME280;15525;45.568;5.448;2022-11-14T00:27:47;98110.16;;;15.32;59.06
28267;BME280;15525;45.568;5.448;2022-11-14T00:30:13;98092.69;;;15.16;59.62
28267;BME280;15525;45.568;5.448;2022-11-14T00:32:38;98098.47;;;15.10;59.42
28267;BME280;15525;45.568;5.448;2022-11-14T00:35:04;98099.97;;;15.16;59.71
28267;BME280;15525;45.568;5.448;2022-11-14T00:37:29;98101.47;;;15.22;59.88
28267;BME280;15525;45.568;5.448;2022-11-14T00:39:55;98099.66;;;15.17;60.33
28267;BME280;15525;45.568;5.448;2022-11-14T00:42:20;98112.88;;;15.19;59.88
28267;BME280;15525;45.568;5.448;2022-11-14T00:44:45;98110.06;;;15.24;59.72
28267;BME280;15525;45.568;5.448;2022-11-14T00:47:11;98106.66;;;15.18;60.02
28267;BME280;15525;45.568;5.448;2022-11-14T00:49:36;98113.44;;;15.16;59.50
28267;BME280;15525;45.568;5.448;2022-11-14T00:52:01;98093.69;;;14.88;60.27
28267;BME280;15525;45.568;5.448;2022-11-14T00:54:27;98101.56;;;14.85;60.53
28267;BME280;15525;45.568;5.448;2022-11-14T00:56:52;98085.59;;;14.88;60.47
28267;BME280;15525;45.568;5.448;2022-11-14T00:59:17;98089.13;;;15.02;60.30
28267;BME280;15525;45.568;5.448;2022-11-14T01:01:43;98071.44;;;14.83;60.35
28267;BME280;15525;45.568;5.448;2022-11-14T01:04:08;98086.84;;;14.96;60.35
28267;BME280;15525;45.568;5.448;2022-11-14T01:06:34;98101.53;;;15.03;60.34
28267;BME280;15525;45.568;5.448;2022-11-14T01:08:59;98091.16;;;14.78;60.97
28267;BME280;15525;45.568;5.448;2022-11-14T01:11:24;98098.16;;;14.79;60.78
28267;BME280;15525;45.568;5.448;2022-11-14T01:13:50;98092.03;;;14.42;62.36
28267;BME280;15525;45.568;5.448;2022-11-14T01:16:15;98104.63;;;14.78;61.51
28267;BME280;15525;45.568;5.448;2022-11-14T01:18:41;98091.66;;;15.12;60.18
28267;BME280;15525;45.568;5.448;2022-11-14T01:21:08;98098.22;;;15.06;60.88
28267;BME280;15525;45.568;5.448;2022-11-14T01:23:35;98099.34;;;15.05;60.51
28267;BME280;15525;45.568;5.448;2022-11-14T01:26:08;98102.59;;;15.02;60.70
28267;BME280;15525;45.568;5.448;2022-11-14T01:28:34;98086.44;;;15.02;60.21
28267;BME280;15525;45.568;5.448;2022-11-14T01:31:14;98089.38;;;15.19;60.30
28267;BME280;15525;45.568;5.448;2022-11-14T01:33:39;98084.56;;;15.62;58.51
28267;BME280;15525;45.568;5.448;2022-11-14T01:36:06;98089.44;;;15.73;58.10
28267;BME280;15525;45.568;5.448;2022-11-14T01:38:32;98100.44;;;15.36;59.05
28267;BME280;15525;45.568;5.448;2022-11-14T01:40:57;98086.16;;;15.49;58.58
28267;BME280;15525;45.568;5.448;2022-11-14T01:43:31;98088.00;;;15.89;57.61
28267;BME280;15525;45.568;5.448;2022-11-14T01:46:04;98087.72;;;15.91;57.65
28267;BME280;15525;45.568;5.448;2022-11-14T01:48:44;98096.53;;;15.83;57.96
28267;BME280;15525;45.568;5.448;2022-11-14T01:51:17;98079.31;;;15.92;57.64
28267;BME280;15525;45.568;5.448;2022-11-14T01:53:45;98045.84;;;15.80;57.86
28267;BME280;15525;45.568;5.448;2022-11-14T01:56:14;98076.75;;;15.60;58.68
28267;BME280;15525;45.568;5.448;2022-11-14T01:58:44;98070.75;;;15.63;58.58
28267;BME280;15525;45.568;5.448;2022-11-14T02:01:11;98076.13;;;15.77;58.29
28267;BME280;15525;45.568;5.448;2022-11-14T02:03:38;98055.03;;;15.92;57.61
28267;BME280;15525;45.568;5.448;2022-11-14T02:06:05;98059.00;;;16.08;57.37
28267;BME280;15525;45.568;5.448;2022-11-14T02:08:32;98044.75;;;15.94;57.04
28267;BME280;15525;45.568;5.448;2022-11-14T02:10:58;98054.09;;;16.10;57.32
28267;BME280;15525;45.568;5.448;2022-11-14T02:13:24;98049.91;;;16.04;57.49
28267;BME280;15525;45.568;5.448;2022-11-14T02:15:49;98028.41;;;15.50;58.24
28267;BME280;15525;45.568;5.448;2022-11-14T02:18:15;98042.63;;;15.78;58.01
28267;BME280;15525;45.568;5.448;2022-11-14T02:20:40;98044.97;;;15.71;57.87
28267;BME280;15525;45.568;5.448;2022-11-14T02:23:09;98033.09;;;15.45;58.14
28267;BME280;15525;45.568;5.448;2022-11-14T02:25:34;98051.50;;;16.05;56.90
28267;BME280;15525;45.568;5.448;2022-11-14T02:28:00;98046.56;;;16.21;56.48
28267;BME280;15525;45.568;5.448;2022-11-14T02:30:26;98031.19;;;15.72;56.64
28267;BME280;15525;45.568;5.448;2022-11-14T02:32:52;98037.53;;;15.90;57.30
28267;BME280;15525;45.568;5.448;2022-11-14T02:35:17;98030.03;;;16.00;56.78
28267;BME280;15525;45.568;5.448;2022-11-14T02:37:42;98016.16;;;15.66;56.51
28267;BME280;15525;45.568;5.448;2022-11-14T02:40:08;98034.41;;;16.32;55.12
28267;BME280;15525;45.568;5.448;2022-11-14T02:42:34;98015.34;;;15.79;56.40
28267;BME280;15525;45.568;5.448;2022-11-14T02:44:59;98021.94;;;15.87;56.57
28267;BME280;15525;45.568;5.448;2022-11-14T02:47:25;98022.63;;;15.92;56.75
28267;BME280;15525;45.568;5.448;2022-11-14T02:49:50;98019.44;;;15.90;56.01
28267;BME280;15525;45.568;5.448;2022-11-14T02:52:16;98020.53;;;15.89;55.94
28267;BME280;15525;45.568;5.448;2022-11-14T02:54:42;97993.50;;;15.67;55.99
28267;BME280;15525;45.568;5.448;2022-11-14T02:57:07;98018.97;;;16.10;55.28
28267;BME280;15525;45.568;5.448;2022-11-14T02:59:33;98026.44;;;15.91;55.77
28267;BME280;15525;45.568;5.448;2022-11-14T03:01:58;97990.63;;;15.50;56.27
28267;BME280;15525;45.568;5.448;2022-11-14T03:04:23;98023.81;;;16.00;55.54
28267;BME280;15525;45.568;5.448;2022-11-14T03:06:49;98029.09;;;16.05;55.41
28267;BME280;15525;45.568;5.448;2022-11-14T03:09:14;97995.66;;;16.14;55.21
28267;BME280;15525;45.568;5.448;2022-11-14T03:11:39;98007.06;;;16.11;54.81
28267;BME280;15525;45.568;5.448;2022-11-14T03:14:05;98025.38;;;16.50;54.03
28267;BME280;15525;45.568;5.448;2022-11-14T03:16:30;98009.66;;;16.16;54.88
28267;BME280;15525;45.568;5.448;2022-11-14T03:18:56;98008.69;;;16.12;55.18
28267;BME280;15525;45.568;5.448;2022-11-14T03:21:22;98016.66;;;15.82;55.28
28267;BME280;15525;45.568;5.448;2022-11-14T03:23:47;98022.16;;;15.90;55.32
28267;BME280;15525;45.568;5.448;2022-11-14T03:26:14;98023.00;;;16.35;54.40
28267;BME280;15525;45.568;5.448;2022-11-14T03:28:40;98026.47;;;16.49;54.15
28267;BME280;15525;45.568;5.448;2022-11-14T03:31:07;98028.91;;;16.01;54.86
28267;BME280;15525;45.568;5.448;2022-11-14T03:33:34;98028.13;;;16.01;55.15
28267;BME280;15525;45.568;5.448;2022-11-14T03:36:00;98039.25;;;16.21;55.02
28267;BME280;15525;45.568;5.448;2022-11-14T03:38:26;98025.50;;;16.09;55.14
28267;BME280;15525;45.568;5.448;2022-11-14T03:40:51;98035.13;;;15.88;55.01
28267;BME280;15525;45.568;5.448;2022-11-14T03:43:18;98017.47;;;16.18;53.96
28267;BME280;15525;45.568;5.448;2022-11-14T03:45:44;98012.88;;;16.05;54.42
28267;BME280;15525;45.568;5.448;2022-11-14T03:48:10;98028.38;;;15.64;54.35
28267;BME280;15525;45.568;5.448;2022-11-14T03:50:36;98015.34;;;15.79;53.95
28267;BME280;15525;45.568;5.448;2022-11-14T03:53:01;98020.88;;;16.10;54.13
28267;BME280;15525;45.568;5.448;2022-11-14T03:55:27;98019.69;;;16.02;53.42
28267;BME280;15525;45.568;5.448;2022-11-14T03:57:52;98027.97;;;16.19;53.11
28267;BME280;15525;45.568;5.448;2022-11-14T04:00:18;98033.00;;;16.34;53.12
28267;BME280;15525;45.568;5.448;2022-11-14T04:02:43;98043.28;;;16.10;52.96
28267;BME280;15525;45.568;5.448;2022-11-14T04:05:09;98034.72;;;16.08;53.11
28267;BME280;15525;45.568;5.448;2022-11-14T04:07:34;98021.88;;;16.14;52.91
28267;BME280;15525;45.568;5.448;2022-11-14T04:09:59;98046.38;;;15.41;55.14
28267;BME280;15525;45.568;5.448;2022-11-14T04:12:25;98039.38;;;15.40;55.27
28267;BME280;15525;45.568;5.448;2022-11-14T04:14:50;98036.13;;;15.92;53.77
28267;BME280;15525;45.568;5.448;2022-11-14T04:17:16;98042.75;;;15.73;53.88
28267;BME280;15525;45.568;5.448;2022-11-14T04:19:42;98033.34;;;16.19;53.33
28267;BME280;15525;45.568;5.448;2022-11-14T04:22:07;98035.06;;;15.80;53.64
28267;BME280;15525;45.568;5.448;2022-11-14T04:24:33;98000.38;;;15.73;53.84
28267;BME280;15525;45.568;5.448;2022-11-14T04:26:58;98009.53;;;15.86;52.78
28267;BME280;15525;45.568;5.448;2022-11-14T04:29:24;98001.00;;;16.06;52.11
28267;BME280;15525;45.568;5.448;2022-11-14T04:31:49;98024.38;;;16.10;52.17
28267;BME280;15525;45.568;5.448;2022-11-14T04:34:14;97993.50;;;16.03;52.02
28267;BME280;15525;45.568;5.448;2022-11-14T04:36:40;98019.34;;;15.95;52.32
28267;BME280;15525;45.568;5.448;2022-11-14T04:39:05;98009.84;;;15.84;52.06
28267;BME280;15525;45.568;5.448;2022-11-14T04:41:30;98004.00;;;16.04;51.51
28267;BME280;15525;45.568;5.448;2022-11-14T04:43:56;97994.09;;;16.00;51.89
28267;BME280;15525;45.568;5.448;2022-11-14T04:46:21;98001.88;;;16.15;51.66
28267;BME280;15525;45.568;5.448;2022-11-14T04:48:47;98014.72;;;15.96;51.79
28267;BME280;15525;45.568;5.448;2022-11-14T04:51:12;98003.38;;;16.07;51.40
28267;BME280;15525;45.568;5.448;2022-11-14T04:53:37;98012.81;;;16.32;50.82
28267;BME280;15525;45.568;5.448;2022-11-14T04:56:03;98004.91;;;16.35;50.93
28267;BME280;15525;45.568;5.448;2022-11-14T04:58:28;98006.06;;;16.07;51.68
28267;BME280;15525;45.568;5.448;2022-11-14T05:00:54;98016.34;;;15.83;51.28
28267;BME280;15525;45.568;5.448;2022-11-14T05:03:22;97997.63;;;16.00;51.30
28267;BME280;15525;45.568;5.448;2022-11-14T05:05:47;98015.19;;;16.11;51.02
28267;BME280;15525;45.568;5.448;2022-11-14T05:08:13;97997.97;;;15.72;51.32
28267;BME280;15525;45.568;5.448;2022-11-14T05:10:42;98005.13;;;16.03;50.80
28267;BME280;15525;45.568;5.448;2022-11-14T05:13:08;98012.09;;;16.04;51.32
28267;BME280;15525;45.568;5.448;2022-11-14T05:15:34;98020.31;;;15.99;51.36
28267;BME280;15525;45.568;5.448;2022-11-14T05:17:59;97996.75;;;15.91;50.96
28267;BME280;15525;45.568;5.448;2022-11-14T05:20:25;98017.50;;;16.04;50.77
28267;BME280;15525;45.568;5.448;2022-11-14T05:22:54;98030.47;;;15.80;52.12
28267;BME280;15525;45.568;5.448;2022-11-14T05:25:21;98019.50;;;16.12;51.79
28267;BME280;15525;45.568;5.448;2022-11-14T05:27:46;98005.97;;;16.34;50.20
28267;BME280;15525;45.568;5.448;2022-11-14T05:30:12;98014.50;;;16.41;50.06
28267;BME280;15525;45.568;5.448;2022-11-14T05:32:37;98029.31;;;16.30;50.26
28267;BME280;15525;45.568;5.448;2022-11-14T05:35:03;98019.69;;;16.02;51.88
28267;BME280;15525;45.568;5.448;2022-11-14T05:37:29;98018.53;;;15.95;51.54
28267;BME280;15525;45.568;5.448;2022-11-14T05:39:54;98031.69;;;16.10;51.03
28267;BME280;15525;45.568;5.448;2022-11-14T05:42:19;98009.28;;;16.09;51.74
28267;BME280;15525;45.568;5.448;2022-11-14T05:44:45;98032.13;;;16.03;51.57
28267;BME280;15525;45.568;5.448;2022-11-14T05:47:10;98031.88;;;16.13;51.73
28267;BME280;15525;45.568;5.448;2022-11-14T05:49:36;98039.94;;;15.78;51.56
28267;BME280;15525;45.568;5.448;2022-11-14T05:52:01;98026.91;;;16.07;51.13
28267;BME280;15525;45.568;5.448;2022-11-14T05:54:26;98033.59;;;16.09;50.86
28267;BME280;15525;45.568;5.448;2022-11-14T05:56:53;98033.34;;;15.70;51.11
28267;BME280;15525;45.568;5.448;2022-11-14T05:59:18;98037.00;;;16.15;50.81
28267;BME280;15525;45.568;5.448;2022-11-14T06:01:44;98028.44;;;15.86;51.88
28267;BME280;15525;45.568;5.448;2022-11-14T06:04:11;98026.91;;;15.44;53.00
28267;BME280;15525;45.568;5.448;2022-11-14T06:06:37;98036.00;;;15.97;52.54
28267;BME280;15525;45.568;5.448;2022-11-14T06:09:02;98021.38;;;15.63;52.70
28267;BME280;15525;45.568;5.448;2022-11-14T06:11:28;98023.59;;;15.47;53.75
28267;BME280;15525;45.568;5.448;2022-11-14T06:13:53;98025.66;;;15.64;53.49
28267;BME280;15525;45.568;5.448;2022-11-14T06:16:19;98042.88;;;15.54;53.71
28267;BME280;15525;45.568;5.448;2022-11-14T06:18:45;98032.66;;;15.24;55.12
28267;BME280;15525;45.568;5.448;2022-11-14T06:21:12;98034.25;;;15.25;54.83
28267;BME280;15525;45.568;5.448;2022-11-14T06:23:38;98036.75;;;15.22;55.27
28267;BME280;15525;45.568;5.448;2022-11-14T06:26:06;98039.00;;;15.01;56.23
28267;BME280;15525;45.568;5.448;2022-11-14T06:28:32;98030.16;;;15.14;55.38
28267;BME280;15525;45.568;5.448;2022-11-14T06:30:58;98045.25;;;15.29;55.09
28267;BME280;15525;45.568;5.448;2022-11-14T06:33:24;98043.19;;;14.94;55.86
28267;BME280;15525;45.568;5.448;2022-11-14T06:35:50;98034.53;;;14.97;55.53
28267;BME280;15525;45.568;5.448;2022-11-14T06:38:15;98054.59;;;15.04;55.84
28267;BME280;15525;45.568;5.448;2022-11-14T06:40:41;98052.66;;;14.78;56.82
28267;BME280;15525;45.568;5.448;2022-11-14T06:43:06;98060.13;;;14.81;57.07
28267;BME280;15525;45.568;5.448;2022-11-14T06:45:31;98069.28;;;14.98;56.62
28267;BME280;15525;45.568;5.448;2022-11-14T06:47:58;98065.78;;;14.66;56.23
28267;BME280;15525;45.568;5.448;2022-11-14T06:50:24;98074.03;;;14.88;55.84
28267;BME280;15525;45.568;5.448;2022-11-14T06:52:49;98082.47;;;15.13;55.18
28267;BME280;15525;45.568;5.448;2022-11-14T06:55:14;98083.19;;;15.19;55.06
28267;BME280;15525;45.568;5.448;2022-11-14T06:57:40;98093.25;;;15.45;54.67
28267;BME280;15525;45.568;5.448;2022-11-14T07:00:06;98098.53;;;15.50;54.55
28267;BME280;15525;45.568;5.448;2022-11-14T07:02:32;98086.03;;;15.41;54.89
28267;BME280;15525;45.568;5.448;2022-11-14T07:04:57;98088.28;;;15.20;55.38
28267;BME280;15525;45.568;5.448;2022-11-14T07:07:22;98091.97;;;15.24;55.40
28267;BME280;15525;45.568;5.448;2022-11-14T07:09:48;98093.50;;;15.30;55.27
28267;BME280;15525;45.568;5.448;2022-11-14T07:12:13;98098.06;;;15.16;55.37
28267;BME280;15525;45.568;5.448;2022-11-14T07:14:39;98098.09;;;15.30;55.00
28267;BME280;15525;45.568;5.448;2022-11-14T07:17:04;98095.34;;;15.03;55.18
28267;BME280;15525;45.568;5.448;2022-11-14T07:19:29;98090.41;;;14.91;55.07
28267;BME280;15525;45.568;5.448;2022-11-14T07:21:55;98097.03;;;15.44;54.33
28267;BME280;15525;45.568;5.448;2022-11-14T07:24:20;98100.84;;;15.57;53.83
28267;BME280;15525;45.568;5.448;2022-11-14T07:26:46;98102.84;;;15.78;53.68
28267;BME280;15525;45.568;5.448;2022-11-14T07:29:11;98097.34;;;15.43;53.76
28267;BME280;15525;45.568;5.448;2022-11-14T07:31:36;98102.72;;;15.56;54.17
28267;BME280;15525;45.568;5.448;2022-11-14T07:34:02;98086.63;;;15.51;53.84
28267;BME280;15525;45.568;5.448;2022-11-14T07:36:27;98093.44;;;15.03;54.66
28267;BME280;15525;45.568;5.448;2022-11-14T07:38:53;98093.16;;;15.37;53.40
28267;BME280;15525;45.568;5.448;2022-11-14T07:41:18;98090.16;;;15.52;53.38
28267;BME280;15525;45.568;5.448;2022-11-14T07:43:44;98084.13;;;15.55;52.21
28267;BME280;15525;45.568;5.448;2022-11-14T07:46:12;98100.94;;;15.65;52.57
28267;BME280;15525;45.568;5.448;2022-11-14T07:48:38;98109.53;;;15.40;52.83
28267;BME280;15525;45.568;5.448;2022-11-14T07:51:05;98103.56;;;15.25;53.14
28267;BME280;15525;45.568;5.448;2022-11-14T07:53:32;98077.56;;;15.61;51.94
28267;BME280;15525;45.568;5.448;2022-11-14T07:56:03;98096.94;;;15.76;51.97
28267;BME280;15525;45.568;5.448;2022-11-14T07:58:29;98104.22;;;15.76;52.78
28267;BME280;15525;45.568;5.448;2022-11-14T08:00:55;98115.84;;;15.76;51.79
28267;BME280;15525;45.568;5.448;2022-11-14T08:03:20;98107.84;;;15.85;52.28
28267;BME280;15525;45.568;5.448;2022-11-14T08:05:46;98112.25;;;15.67;51.70
28267;BME280;15525;45.568;5.448;2022-11-14T08:08:11;98105.47;;;16.19;51.33
28267;BME280;15525;45.568;5.448;2022-11-14T08:10:36;98109.06;;;16.41;50.42
28267;BME280;15525;45.568;5.448;2022-11-14T08:13:04;98114.31;;;16.11;50.83
28267;BME280;15525;45.568;5.448;2022-11-14T08:15:30;98120.63;;;16.55;50.05
28267;BME280;15525;45.568;5.448;2022-11-14T08:17:57;98128.91;;;16.59;50.90
28267;BME280;15525;45.568;5.448;2022-11-14T08:20:23;98122.22;;;16.56;51.41
28267;BME280;15525;45.568;5.448;2022-11-14T08:22:49;98131.03;;;16.48;50.83
28267;BME280;15525;45.568;5.448;2022-11-14T08:25:14;98137.75;;;16.37;50.91
28267;BME280;15525;45.568;5.448;2022-11-14T08:27:39;98143.50;;;16.22;50.80
28267;BME280;15525;45.568;5.448;2022-11-14T08:30:05;98139.34;;;16.38;50.72
28267;BME280;15525;45.568;5.448;2022-11-14T08:32:31;98137.59;;;16.69;50.40
28267;BME280;15525;45.568;5.448;2022-11-14T08:34:56;98144.53;;;16.62;50.64
28267;BME280;15525;45.568;5.448;2022-11-14T08:37:21;98133.66;;;16.75;50.18
28267;BME280;15525;45.568;5.448;2022-11-14T08:39:47;98145.19;;;16.45;50.50
28267;BME280;15525;45.568;5.448;2022-11-14T08:42:12;98151.50;;;16.76;49.83
28267;BME280;15525;45.568;5.448;2022-11-14T08:44:37;98158.63;;;16.72;50.24
28267;BME280;15525;45.568;5.448;2022-11-14T08:47:03;98151.75;;;16.88;49.80
28267;BME280;15525;45.568;5.448;2022-11-14T08:49:28;98159.91;;;16.75;50.03
28267;BME280;15525;45.568;5.448;2022-11-14T08:51:54;98160.13;;;17.00;50.09
28267;BME280;15525;45.568;5.448;2022-11-14T08:54:19;98154.44;;;17.32;49.69
28267;BME280;15525;45.568;5.448;2022-11-14T08:56:45;98134.16;;;17.21;49.12
28267;BME280;15525;45.568;5.448;2022-11-14T08:59:12;98152.34;;;17.51;48.63
28267;BME280;15525;45.568;5.448;2022-11-14T09:01:37;98173.63;;;17.00;49.19
28267;BME280;15525;45.568;5.448;2022-11-14T09:04:03;98171.50;;;17.11;49.81
28267;BME280;15525;45.568;5.448;2022-11-14T09:06:29;98160.03;;;17.36;49.04
28267;BME280;15525;45.568;5.448;2022-11-14T09:08:54;98159.06;;;17.62;48.43
28267;BME280;15525;45.568;5.448;2022-11-14T09:11:20;98151.66;;;17.76;48.96
28267;BME280;15525;45.568;5.448;2022-11-14T09:13:45;98163.31;;;17.46;48.78
28267;BME280;15525;45.568;5.448;2022-11-14T09:16:11;98155.56;;;17.92;48.73
28267;BME280;15525;45.568;5.448;2022-11-14T09:18:36;98165.59;;;17.61;48.58
28267;BME280;15525;45.568;5.448;2022-11-14T09:21:04;98166.72;;;17.60;49.24
28267;BME280;15525;45.568;5.448;2022-11-14T09:23:30;98151.78;;;17.19;50.01
28267;BME280;15525;45.568;5.448;2022-11-14T09:25:56;98156.56;;;17.66;49.35
28267;BME280;15525;45.568;5.448;2022-11-14T09:28:22;98166.03;;;17.33;49.29
28267;BME280;15525;45.568;5.448;2022-11-14T09:30:48;98160.22;;;17.70;48.03
28267;BME280;15525;45.568;5.448;2022-11-14T09:33:14;98163.69;;;17.09;49.08
28267;BME280;15525;45.568;5.448;2022-11-14T09:35:40;98162.22;;;16.68;50.19
28267;BME280;15525;45.568;5.448;2022-11-14T09:38:08;98172.38;;;16.84;49.52
28267;BME280;15525;45.568;5.448;2022-11-14T09:46:31;98169.38;;;17.30;49.28
28267;BME280;15525;45.568;5.448;2022-11-14T09:48:57;98174.25;;;17.19;48.62
28267;BME280;15525;45.568;5.448;2022-11-14T09:51:32;98177.22;;;17.31;49.39
28267;BME280;15525;45.568;5.448;2022-11-14T09:56:36;98177.78;;;17.72;47.61
28267;BME280;15525;45.568;5.448;2022-11-14T09:59:01;98176.59;;;17.65;48.22
28267;BME280;15525;45.568;5.448;2022-11-14T10:01:42;98191.25;;;17.64;47.99
28267;BME280;15525;45.568;5.448;2022-11-14T10:04:24;98176.16;;;17.19;48.62
28267;BME280;15525;45.568;5.448;2022-11-14T10:06:59;98178.66;;;17.37;48.33
28267;BME280;15525;45.568;5.448;2022-11-14T10:12:11;98165.28;;;17.54;48.70
28267;BME280;15525;45.568;5.448;2022-11-14T10:30:47;98136.00;;;17.12;48.21
28267;BME280;15525;45.568;5.448;2022-11-14T10:36:01;98131.81;;;17.50;46.98
28267;BME280;15525;45.568;5.448;2022-11-14T10:38:34;98147.84;;;17.77;46.39
28267;BME280;15525;45.568;5.448;2022-11-14T10:41:04;98134.19;;;17.82;45.44
28267;BME280;15525;45.568;5.448;2022-11-14T10:43:43;98139.38;;;18.26;45.30
28267;BME280;15525;45.568;5.448;2022-11-14T10:49:18;98132.09;;;18.35;44.60
28267;BME280;15525;45.568;5.448;2022-11-14T10:51:58;98127.94;;;18.38;44.33
28267;BME280;15525;45.568;5.448;2022-11-14T10:54:34;98103.72;;;18.33;43.86
28267;BME280;15525;45.568;5.448;2022-11-14T10:57:02;98114.91;;;18.65;43.65
28267;BME280;15525;45.568;5.448;2022-11-14T10:59:27;98108.31;;;18.32;44.14
28267;BME280;15525;45.568;5.448;2022-11-14T11:01:55;98108.84;;;18.60;43.31
28267;BME280;15525;45.568;5.448;2022-11-14T11:04:31;98110.28;;;18.57;43.54
28267;BME280;15525;45.568;5.448;2022-11-14T11:09:38;98089.66;;;19.24;41.90
28267;BME280;15525;45.568;5.448;2022-11-14T11:12:35;98093.75;;;20.05;40.92
28267;BME280;15525;45.568;5.448;2022-11-14T11:21:11;98101.88;;;19.39;41.24
28267;BME280;15525;45.568;5.448;2022-11-14T11:23:55;98106.06;;;19.11;41.46
28267;BME280;15525;45.568;5.448;2022-11-14T11:26:29;98094.53;;;19.39;42.29
28267;BME280;15525;45.568;5.448;2022-11-14T11:29:14;98119.66;;;19.19;42.16
28267;BME280;15525;45.568;5.448;2022-11-14T11:34:11;98090.25;;;19.76;40.58
28267;BME280;15525;45.568;5.448;2022-11-14T11:36:41;98111.25;;;19.58;41.31
28267;BME280;15525;45.568;5.448;2022-11-14T11:39:19;98097.78;;;19.70;41.38
28267;BME280;15525;45.568;5.448;2022-11-14T11:41:48;98105.22;;;19.44;41.59
28267;BME280;15525;45.568;5.448;2022-11-14T11:44:16;98095.50;;;19.43;41.78
28267;BME280;15525;45.568;5.448;2022-11-14T11:51:55;98094.88;;;20.13;40.35
28267;BME280;15525;45.568;5.448;2022-11-14T11:54:26;98093.69;;;19.93;40.98
28267;BME280;15525;45.568;5.448;2022-11-14T11:56:56;98087.06;;;20.32;40.66
28267;BME280;15525;45.568;5.448;2022-11-14T12:02:19;98088.25;;;19.93;40.68
28267;BME280;15525;45.568;5.448;2022-11-14T12:04:46;98076.25;;;19.57;40.94
28267;BME280;15525;45.568;5.448;2022-11-14T12:07:20;98077.56;;;19.88;40.23
28267;BME280;15525;45.568;5.448;2022-11-14T12:09:47;98070.81;;;19.65;40.52
28267;BME280;15525;45.568;5.448;2022-11-14T12:12:21;98084.84;;;19.67;41.00
28267;BME280;15525;45.568;5.448;2022-11-14T12:18:06;98082.56;;;20.15;40.06
28267;BME280;15525;45.568;5.448;2022-11-14T12:21:01;98081.69;;;19.65;40.75
28267;BME280;15525;45.568;5.448;2022-11-14T12:26:30;98074.88;;;20.38;39.98
28267;BME280;15525;45.568;5.448;2022-11-14T12:31:35;98067.47;;;19.89;40.31
28267;BME280;15525;45.568;5.448;2022-11-14T12:36:54;98077.13;;;20.07;40.75
28267;BME280;15525;45.568;5.448;2022-11-14T12:39:26;98081.22;;;20.42;39.01
28267;BME280;15525;45.568;5.448;2022-11-14T12:42:03;98073.06;;;20.21;39.50
28267;BME280;15525;45.568;5.448;2022-11-14T12:52:43;98065.31;;;20.11;40.12
28267;BME280;15525;45.568;5.448;2022-11-14T13:00:25;98048.09;;;19.99;41.39
28267;BME280;15525;45.568;5.448;2022-11-14T13:09:22;98047.69;;;19.80;40.34
28267;BME280;15525;45.568;5.448;2022-11-14T13:11:51;98033.09;;;19.64;40.50
28267;BME280;15525;45.568;5.448;2022-11-14T13:14:53;98035.03;;;19.92;40.27
28267;BME280;15525;45.568;5.448;2022-11-14T13:17:38;98023.78;;;19.73;40.85
28267;BME280;15525;45.568;5.448;2022-11-14T13:20:35;98013.28;;;19.34;40.69
28267;BME280;15525;45.568;5.448;2022-11-14T13:28:49;98027.50;;;20.18;39.78
28267;BME280;15525;45.568;5.448;2022-11-14T13:36:23;98019.59;;;20.78;39.05
28267;BME280;15525;45.568;5.448;2022-11-14T13:52:16;98000.13;;;20.76;38.81
28267;BME280;15525;45.568;5.448;2022-11-14T13:54:49;97997.34;;;20.64;39.72
28267;BME280;15525;45.568;5.448;2022-11-14T13:57:31;98001.81;;;20.07;39.50
28267;BME280;15525;45.568;5.448;2022-11-14T14:00:10;97987.50;;;19.98;40.77
28267;BME280;15525;45.568;5.448;2022-11-14T14:10:33;97979.47;;;21.08;40.66
28267;BME280;15525;45.568;5.448;2022-11-14T14:13:20;97993.91;;;20.88;39.16
28267;BME280;15525;45.568;5.448;2022-11-14T14:16:03;97983.84;;;20.88;38.50
28267;BME280;15525;45.568;5.448;2022-11-14T14:24:03;97986.00;;;20.30;38.69
28267;BME280;15525;45.568;5.448;2022-11-14T14:32:19;97968.84;;;19.39;39.54
28267;BME280;15525;45.568;5.448;2022-11-14T14:34:45;97981.59;;;19.76;39.40
28267;BME280;15525;45.568;5.448;2022-11-14T14:37:22;97976.66;;;19.49;40.76
28267;BME280;15525;45.568;5.448;2022-11-14T14:39:56;97986.47;;;19.82;40.04
28267;BME280;15525;45.568;5.448;2022-11-14T14:42:22;97974.22;;;19.76;39.89
28267;BME280;15525;45.568;5.448;2022-11-14T14:44:47;97971.56;;;20.17;38.60
28267;BME280;15525;45.568;5.448;2022-11-14T14:47:26;97976.31;;;20.41;39.57
28267;BME280;15525;45.568;5.448;2022-11-14T14:49:55;97974.03;;;20.10;39.10
28267;BME280;15525;45.568;5.448;2022-11-14T14:52:28;97975.06;;;20.38;39.50
28267;BME280;15525;45.568;5.448;2022-11-14T14:54:54;97961.16;;;20.19;39.87
28267;BME280;15525;45.568;5.448;2022-11-14T14:57:20;97978.38;;;20.23;40.35
28267;BME280;15525;45.568;5.448;2022-11-14T15:00:00;97946.72;;;19.78;41.15
28267;BME280;15525;45.568;5.448;2022-11-14T15:02:27;97969.03;;;19.34;41.36
28267;BME280;15525;45.568;5.448;2022-11-14T15:04:54;97961.28;;;19.73;41.22
28267;BME280;15525;45.568;5.448;2022-11-14T15:07:24;97947.00;;;19.64;40.43
28267;BME280;15525;45.568;5.448;2022-11-14T15:09:54;97956.59;;;19.82;40.31